createdAt,value
2018-07-25T00:00:03.392Z,21.10
2018-07-25T00:00:38.017Z,21.10
2018-07-25T00:01:11.930Z,21.10
2018-07-25T00:01:46.338Z,21.10
2018-07-25T00:02:20.233Z,21.10
2018-07-25T00:02:54.513Z,21.10
2018-07-25T00:03:28.670Z,21.10
2018-07-25T00:04:02.634Z,21.10
2018-07-25T00:04:36.494Z,21.10
2018-07-25T00:05:10.692Z,21.10
2018-07-25T00:05:44.589Z,21.10
2018-07-25T00:06:18.530Z,21.00
2018-07-25T00:06:52.952Z,21.10
2018-07-25T00:07:27.154Z,21.00
2018-07-25T00:08:01.060Z,21.00
2018-07-25T00:08:34.968Z,21.00
2018-07-25T00:09:09.954Z,21.00
2018-07-25T00:09:43.858Z,21.10
2018-07-25T00:10:18.078Z,21.10
2018-07-25T00:10:55.804Z,21.00
2018-07-25T00:11:29.826Z,21.00
2018-07-25T00:12:04.019Z,21.00
2018-07-25T00:12:41.490Z,21.00
2018-07-25T00:13:16.982Z,21.00
2018-07-25T00:13:51.496Z,21.00
2018-07-25T00:14:25.410Z,21.00
2018-07-25T00:14:59.268Z,21.00
2018-07-25T00:15:33.456Z,21.00
2018-07-25T00:16:07.634Z,21.00
2018-07-25T00:16:41.480Z,21.00
2018-07-25T00:17:15.320Z,21.00
2018-07-25T00:17:49.436Z,21.00
2018-07-25T00:18:23.306Z,21.00
2018-07-25T00:18:57.158Z,20.90
2018-07-25T00:19:30.984Z,20.90
2018-07-25T00:20:05.393Z,20.90
2018-07-25T00:20:39.879Z,20.90
2018-07-25T00:21:13.732Z,20.90
2018-07-25T00:21:47.622Z,20.90
2018-07-25T00:22:21.642Z,20.80
2018-07-25T00:22:55.492Z,20.80
2018-07-25T00:23:29.701Z,20.80
2018-07-25T00:24:03.540Z,20.80
2018-07-25T00:24:38.222Z,20.80
2018-07-25T00:25:12.067Z,20.80
2018-07-25T00:25:45.980Z,20.80
2018-07-25T00:26:19.838Z,20.70
2018-07-25T00:27:28.636Z,20.70
2018-07-25T00:28:02.519Z,20.70
2018-07-25T00:28:36.440Z,20.70
2018-07-25T00:29:10.326Z,20.70
2018-07-25T00:29:47.058Z,20.70
2018-07-25T00:30:20.893Z,20.70
2018-07-25T00:30:55.094Z,20.70
2018-07-25T00:31:29.330Z,20.70
2018-07-25T00:32:03.182Z,20.70
2018-07-25T00:32:37.050Z,20.70
2018-07-25T00:33:12.089Z,20.70
2018-07-25T00:33:46.004Z,20.70
2018-07-25T00:34:19.880Z,20.60
2018-07-25T00:34:53.773Z,20.60
2018-07-25T00:35:27.666Z,20.60
2018-07-25T00:36:01.600Z,20.60
2018-07-25T00:36:35.457Z,20.60
2018-07-25T00:37:09.312Z,20.60
2018-07-25T00:37:43.258Z,20.60
2018-07-25T00:38:17.151Z,20.60
2018-07-25T00:38:51.052Z,20.60
2018-07-25T00:39:24.937Z,20.60
2018-07-25T00:39:59.628Z,20.60
2018-07-25T00:40:33.817Z,20.60
2018-07-25T00:41:07.644Z,20.60
2018-07-25T00:41:41.687Z,20.60
2018-07-25T00:42:15.584Z,20.60
2018-07-25T00:42:49.970Z,20.60
2018-07-25T00:43:23.838Z,20.60
2018-07-25T00:43:57.746Z,20.60
2018-07-25T00:44:31.651Z,20.60
2018-07-25T00:45:05.494Z,20.60
2018-07-25T00:45:39.416Z,20.60
2018-07-25T00:46:13.347Z,20.60
2018-07-25T00:46:47.222Z,20.60
2018-07-25T00:47:21.242Z,20.60
2018-07-25T00:47:55.127Z,20.60
2018-07-25T00:48:29.264Z,20.60
2018-07-25T00:49:03.164Z,20.60
2018-07-25T00:49:37.383Z,20.60
2018-07-25T00:50:11.327Z,20.60
2018-07-25T00:50:45.184Z,20.60
2018-07-25T00:51:19.080Z,20.60
2018-07-25T00:51:53.331Z,20.60
2018-07-25T00:52:27.674Z,20.60
2018-07-25T00:53:01.561Z,20.60
2018-07-25T00:53:36.144Z,20.60
2018-07-25T00:54:10.035Z,20.60
2018-07-25T00:54:43.892Z,20.60
2018-07-25T00:55:18.478Z,20.60
2018-07-25T00:55:52.532Z,20.60
2018-07-25T00:56:26.715Z,20.50
2018-07-25T00:57:00.568Z,20.50
2018-07-25T00:57:34.764Z,20.50
2018-07-25T00:58:08.747Z,20.50
2018-07-25T00:58:42.645Z,20.50
2018-07-25T00:59:16.912Z,20.50
2018-07-25T00:59:50.807Z,20.50
2018-07-25T01:00:25.362Z,20.50
2018-07-25T01:00:59.233Z,20.50
2018-07-25T01:01:33.103Z,20.50
2018-07-25T01:02:41.172Z,20.50
2018-07-25T01:03:15.017Z,20.50
2018-07-25T01:03:48.885Z,20.50
2018-07-25T01:04:22.780Z,20.50
2018-07-25T01:04:56.674Z,20.50
2018-07-25T01:05:30.850Z,20.50
2018-07-25T01:06:05.065Z,20.40
2018-07-25T01:06:39.279Z,20.40
2018-07-25T01:07:13.504Z,20.50
2018-07-25T01:07:47.445Z,20.40
2018-07-25T01:08:21.696Z,20.40
2018-07-25T01:08:55.957Z,20.40
2018-07-25T01:09:29.857Z,20.40
2018-07-25T01:10:04.251Z,20.40
2018-07-25T01:10:41.917Z,20.40
2018-07-25T01:11:16.121Z,20.40
2018-07-25T01:11:50.086Z,20.40
2018-07-25T01:12:24.285Z,20.40
2018-07-25T01:12:58.485Z,20.40
2018-07-25T01:13:32.375Z,20.40
2018-07-25T01:14:06.570Z,20.40
2018-07-25T01:14:40.463Z,20.30
2018-07-25T01:15:14.659Z,20.30
2018-07-25T01:15:48.863Z,20.30
2018-07-25T01:16:23.067Z,20.30
2018-07-25T01:16:56.907Z,20.30
2018-07-25T01:17:31.483Z,20.30
2018-07-25T01:18:05.379Z,20.30
2018-07-25T01:18:39.240Z,20.30
2018-07-25T01:19:13.101Z,20.30
2018-07-25T01:19:47.563Z,20.30
2018-07-25T01:20:21.435Z,20.20
2018-07-25T01:20:56.025Z,20.20
2018-07-25T01:21:29.921Z,20.20
2018-07-25T01:22:03.803Z,20.20
2018-07-25T01:22:37.692Z,20.20
2018-07-25T01:23:11.861Z,20.20
2018-07-25T01:23:46.135Z,20.20
2018-07-25T01:24:20.355Z,20.20
2018-07-25T01:24:54.668Z,20.20
2018-07-25T01:25:29.392Z,20.20
2018-07-25T01:26:03.315Z,20.20
2018-07-25T01:26:37.273Z,20.20
2018-07-25T01:27:11.134Z,20.30
2018-07-25T01:27:45.360Z,20.30
2018-07-25T01:28:19.237Z,20.30
2018-07-25T01:28:53.112Z,20.30
2018-07-25T01:29:27.311Z,20.20
2018-07-25T01:30:01.621Z,20.30
2018-07-25T01:30:35.533Z,20.30
2018-07-25T01:31:09.712Z,20.20
2018-07-25T01:31:43.589Z,20.20
2018-07-25T01:32:17.811Z,20.20
2018-07-25T01:32:51.721Z,20.20
2018-07-25T01:33:25.621Z,20.20
2018-07-25T01:33:59.495Z,20.20
2018-07-25T01:34:33.395Z,20.20
2018-07-25T01:35:07.595Z,20.20
2018-07-25T01:35:41.795Z,20.20
2018-07-25T01:36:55.813Z,20.20
2018-07-25T01:37:30.017Z,20.20
2018-07-25T01:38:03.911Z,20.20
2018-07-25T01:38:37.770Z,20.10
2018-07-25T01:39:12.025Z,20.10
2018-07-25T01:39:45.915Z,20.10
2018-07-25T01:40:20.212Z,20.10
2018-07-25T01:40:54.157Z,20.10
2018-07-25T01:42:01.907Z,20.00
2018-07-25T01:42:36.143Z,20.00
2018-07-25T01:43:10.366Z,20.00
2018-07-25T01:43:44.231Z,20.00
2018-07-25T01:44:18.197Z,20.00
2018-07-25T01:44:52.033Z,20.00
2018-07-25T01:45:25.939Z,19.90
2018-07-25T01:45:59.766Z,19.90
2018-07-25T01:46:33.633Z,19.90
2018-07-25T01:47:07.499Z,19.90
2018-07-25T01:47:42.023Z,19.90
2018-07-25T01:48:15.876Z,19.90
2018-07-25T01:48:49.848Z,19.90
2018-07-25T01:49:23.964Z,20.00
2018-07-25T01:49:58.197Z,19.90
2018-07-25T01:50:32.469Z,20.00
2018-07-25T01:51:06.362Z,19.90
2018-07-25T01:51:40.295Z,20.00
2018-07-25T01:52:14.193Z,20.00
2018-07-25T01:52:48.432Z,20.00
2018-07-25T01:53:22.309Z,20.00
2018-07-25T01:53:56.285Z,20.00
2018-07-25T01:55:04.241Z,20.00
2018-07-25T01:55:38.178Z,20.00
2018-07-25T01:56:12.069Z,20.00
2018-07-25T01:56:46.288Z,19.90
2018-07-25T01:57:20.165Z,19.90
2018-07-25T01:57:54.027Z,19.90
2018-07-25T01:58:27.913Z,19.90
2018-07-25T01:59:01.851Z,19.90
2018-07-25T01:59:35.687Z,19.90
2018-07-25T02:00:09.636Z,19.90
2018-07-25T02:00:45.927Z,19.90
2018-07-25T02:01:20.155Z,19.90
2018-07-25T02:01:54.734Z,19.90
2018-07-25T02:02:28.955Z,19.90
2018-07-25T02:03:02.925Z,19.90
2018-07-25T02:03:36.819Z,19.80
2018-07-25T02:04:10.669Z,19.80
2018-07-25T02:04:44.964Z,19.80
2018-07-25T02:05:18.895Z,19.80
2018-07-25T02:05:52.851Z,19.80
2018-07-25T02:06:26.699Z,19.80
2018-07-25T02:07:00.574Z,19.80
2018-07-25T02:07:34.794Z,19.80
2018-07-25T02:08:08.851Z,19.80
2018-07-25T02:08:42.880Z,19.80
2018-07-25T02:09:16.762Z,19.80
2018-07-25T02:09:50.627Z,19.80
2018-07-25T02:10:24.859Z,19.80
2018-07-25T02:10:59.141Z,19.80
2018-07-25T02:11:33.377Z,19.70
2018-07-25T02:12:07.949Z,19.70
2018-07-25T02:12:42.111Z,19.70
2018-07-25T02:13:16.981Z,19.70
2018-07-25T02:13:50.897Z,19.70
2018-07-25T02:14:24.796Z,19.60
2018-07-25T02:14:59.033Z,19.60
2018-07-25T02:15:32.913Z,19.60
2018-07-25T02:16:06.848Z,19.60
2018-07-25T02:16:41.081Z,19.60
2018-07-25T02:17:14.977Z,19.60
2018-07-25T02:17:48.840Z,19.60
2018-07-25T02:18:22.734Z,19.60
2018-07-25T02:18:56.641Z,19.60
2018-07-25T02:19:30.922Z,19.60
2018-07-25T02:20:05.171Z,19.60
2018-07-25T02:20:39.366Z,19.60
2018-07-25T02:21:13.643Z,19.60
2018-07-25T02:21:47.544Z,19.50
2018-07-25T02:22:21.439Z,19.60
2018-07-25T02:22:55.356Z,19.60
2018-07-25T02:23:29.247Z,19.60
2018-07-25T02:24:03.163Z,19.60
2018-07-25T02:24:37.022Z,19.60
2018-07-25T02:25:10.933Z,19.60
2018-07-25T02:25:45.459Z,19.60
2018-07-25T02:26:19.367Z,19.60
2018-07-25T02:26:53.349Z,19.50
2018-07-25T02:28:00.813Z,19.50
2018-07-25T02:28:35.015Z,19.50
2018-07-25T02:29:09.205Z,19.50
2018-07-25T02:29:43.088Z,19.50
2018-07-25T02:30:16.953Z,19.50
2018-07-25T02:30:50.832Z,19.50
2018-07-25T02:31:24.713Z,19.50
2018-07-25T02:31:58.595Z,19.50
2018-07-25T02:32:32.517Z,19.50
2018-07-25T02:33:06.693Z,19.50
2018-07-25T02:33:46.109Z,19.50
2018-07-25T02:34:20.497Z,19.50
2018-07-25T02:34:54.373Z,19.50
2018-07-25T02:35:28.641Z,19.40
2018-07-25T02:36:02.511Z,19.40
2018-07-25T02:36:36.777Z,19.40
2018-07-25T02:37:10.977Z,19.40
2018-07-25T02:37:45.239Z,19.40
2018-07-25T02:38:19.091Z,19.40
2018-07-25T02:38:52.953Z,19.40
2018-07-25T02:39:26.877Z,19.40
2018-07-25T02:40:01.106Z,19.40
2018-07-25T02:40:35.309Z,19.40
2018-07-25T02:41:09.201Z,19.40
2018-07-25T02:41:44.643Z,19.40
2018-07-25T02:42:18.917Z,19.40
2018-07-25T02:42:52.932Z,19.40
2018-07-25T02:43:26.829Z,19.40
2018-07-25T02:44:00.750Z,19.40
2018-07-25T02:44:34.642Z,19.40
2018-07-25T02:45:08.638Z,19.40
2018-07-25T02:45:45.438Z,19.40
2018-07-25T02:46:19.329Z,19.40
2018-07-25T02:46:53.230Z,19.40
2018-07-25T02:47:27.468Z,19.30
2018-07-25T02:48:01.327Z,19.40
2018-07-25T02:48:35.162Z,19.40
2018-07-25T02:49:09.200Z,19.40
2018-07-25T02:49:43.034Z,19.40
2018-07-25T02:50:16.939Z,19.40
2018-07-25T02:50:50.807Z,19.40
2018-07-25T02:51:24.733Z,19.40
2018-07-25T02:51:58.627Z,19.40
2018-07-25T02:52:32.801Z,19.40
2018-07-25T02:53:06.665Z,19.40
2018-07-25T02:53:40.889Z,19.40
2018-07-25T02:54:15.099Z,19.40
2018-07-25T02:54:48.985Z,19.40
2018-07-25T02:55:22.902Z,19.40
2018-07-25T02:55:57.134Z,19.40
2018-07-25T02:57:05.233Z,19.40
2018-07-25T02:57:39.085Z,19.30
2018-07-25T02:58:13.257Z,19.40
2018-07-25T02:58:47.093Z,19.40
2018-07-25T02:59:21.144Z,19.40
2018-07-25T02:59:55.933Z,19.40
2018-07-25T03:00:29.802Z,19.40
2018-07-25T03:01:03.689Z,19.40
2018-07-25T03:01:37.543Z,19.40
2018-07-25T03:02:11.453Z,19.40
2018-07-25T03:02:45.709Z,19.40
2018-07-25T03:03:19.580Z,19.40
2018-07-25T03:03:53.454Z,19.40
2018-07-25T03:04:27.315Z,19.30
2018-07-25T03:05:01.143Z,19.30
2018-07-25T03:05:35.325Z,19.40
2018-07-25T03:06:09.199Z,19.40
2018-07-25T03:06:43.114Z,19.40
2018-07-25T03:07:17.353Z,19.40
2018-07-25T03:07:51.248Z,19.30
2018-07-25T03:08:25.165Z,19.40
2018-07-25T03:09:32.731Z,19.30
2018-07-25T03:10:06.827Z,19.30
2018-07-25T03:10:44.957Z,19.30
2018-07-25T03:11:19.145Z,19.30
2018-07-25T03:11:53.015Z,19.30
2018-07-25T03:12:27.255Z,19.30
2018-07-25T03:13:01.794Z,19.30
2018-07-25T03:13:36.036Z,19.30
2018-07-25T03:14:09.922Z,19.40
2018-07-25T03:14:44.153Z,19.40
2018-07-25T03:15:18.785Z,19.40
2018-07-25T03:16:04.178Z,19.40
2018-07-25T03:16:38.461Z,19.30
2018-07-25T03:17:12.505Z,19.30
2018-07-25T03:17:46.810Z,19.30
2018-07-25T03:18:20.651Z,19.30
2018-07-25T03:18:54.501Z,19.30
2018-07-25T03:19:28.363Z,19.30
2018-07-25T03:20:02.225Z,19.30
2018-07-25T03:20:36.105Z,19.30
2018-07-25T03:21:10.613Z,19.30
2018-07-25T03:21:44.512Z,19.30
2018-07-25T03:22:18.315Z,19.40
2018-07-25T03:22:52.220Z,19.40
2018-07-25T03:23:26.191Z,19.40
2018-07-25T03:24:00.068Z,19.40
2018-07-25T03:24:33.955Z,19.40
2018-07-25T03:25:07.835Z,19.40
2018-07-25T03:25:42.075Z,19.40
2018-07-25T03:26:16.609Z,19.40
2018-07-25T03:26:50.510Z,19.40
2018-07-25T03:27:24.371Z,19.40
2018-07-25T03:27:58.295Z,19.40
2018-07-25T03:28:32.432Z,19.40
2018-07-25T03:29:06.675Z,19.50
2018-07-25T03:29:41.207Z,19.40
2018-07-25T03:30:15.076Z,19.50
2018-07-25T03:30:49.301Z,19.50
2018-07-25T03:31:23.271Z,19.50
2018-07-25T03:31:57.295Z,19.50
2018-07-25T03:32:31.164Z,19.50
2018-07-25T03:33:05.060Z,19.50
2018-07-25T03:33:38.926Z,19.50
2018-07-25T03:34:13.154Z,19.50
2018-07-25T03:34:47.048Z,19.60
2018-07-25T03:35:20.916Z,19.60
2018-07-25T03:35:56.218Z,19.60
2018-07-25T03:36:30.108Z,19.60
2018-07-25T03:37:04.679Z,19.60
2018-07-25T03:37:38.516Z,19.60
2018-07-25T03:38:12.400Z,19.70
2018-07-25T03:38:46.336Z,19.70
2018-07-25T03:39:20.258Z,19.70
2018-07-25T03:39:54.102Z,19.70
2018-07-25T03:40:27.972Z,19.70
2018-07-25T03:41:02.476Z,19.70
2018-07-25T03:41:36.349Z,19.70
2018-07-25T03:42:10.216Z,19.80
2018-07-25T03:42:44.050Z,19.80
2018-07-25T03:43:17.953Z,19.80
2018-07-25T03:43:51.801Z,19.80
2018-07-25T03:44:25.973Z,19.80
2018-07-25T03:44:59.855Z,19.80
2018-07-25T03:45:33.713Z,19.80
2018-07-25T03:46:07.931Z,19.90
2018-07-25T03:46:41.814Z,19.90
2018-07-25T03:47:15.652Z,20.00
2018-07-25T03:47:49.890Z,20.00
2018-07-25T03:48:24.095Z,20.10
2018-07-25T03:48:57.953Z,20.20
2018-07-25T03:49:31.830Z,20.30
2018-07-25T03:50:05.764Z,20.40
2018-07-25T03:50:39.992Z,20.60
2018-07-25T03:51:13.840Z,20.70
2018-07-25T03:51:47.669Z,20.80
2018-07-25T03:52:21.529Z,21.00
2018-07-25T03:52:55.373Z,21.10
2018-07-25T03:53:29.553Z,21.30
2018-07-25T03:54:03.453Z,21.40
2018-07-25T03:54:37.329Z,21.50
2018-07-25T03:55:11.515Z,21.70
2018-07-25T03:55:45.732Z,21.80
2018-07-25T03:56:19.665Z,21.90
2018-07-25T03:56:54.220Z,22.10
2018-07-25T03:57:28.082Z,22.20
2018-07-25T03:58:01.938Z,22.30
2018-07-25T03:58:35.820Z,22.40
2018-07-25T03:59:09.982Z,22.50
2018-07-25T03:59:43.895Z,22.60
2018-07-25T04:00:18.103Z,22.70
2018-07-25T04:00:51.945Z,22.80
2018-07-25T04:01:25.777Z,22.90
2018-07-25T04:01:59.978Z,23.00
2018-07-25T04:02:34.062Z,23.10
2018-07-25T04:03:08.114Z,23.20
2018-07-25T04:03:42.018Z,23.30
2018-07-25T04:04:16.051Z,23.30
2018-07-25T04:04:49.925Z,23.50
2018-07-25T04:05:23.805Z,23.60
2018-07-25T04:05:57.675Z,23.70
2018-07-25T04:06:31.798Z,23.80
2018-07-25T04:07:05.685Z,23.80
2018-07-25T04:07:39.551Z,23.90
2018-07-25T04:08:13.401Z,24.00
2018-07-25T04:08:47.825Z,24.10
2018-07-25T04:09:21.724Z,24.10
2018-07-25T04:09:55.669Z,24.30
2018-07-25T04:10:29.535Z,24.30
2018-07-25T04:11:03.415Z,24.40
2018-07-25T04:12:11.152Z,24.60
2018-07-25T04:12:45.692Z,24.70
2018-07-25T04:13:19.900Z,24.70
2018-07-25T04:13:53.788Z,24.90
2018-07-25T04:14:27.956Z,24.90
2018-07-25T04:15:02.166Z,24.90
2018-07-25T04:15:35.987Z,25.00
2018-07-25T04:16:10.153Z,25.00
2018-07-25T04:16:44.012Z,25.00
2018-07-25T04:17:17.872Z,25.10
2018-07-25T04:17:51.734Z,25.10
2018-07-25T04:18:25.614Z,25.10
2018-07-25T04:18:59.796Z,25.20
2018-07-25T04:19:34.531Z,25.20
2018-07-25T04:20:08.724Z,25.20
2018-07-25T04:20:42.630Z,25.30
2018-07-25T04:21:16.505Z,25.40
2018-07-25T04:21:50.460Z,25.40
2018-07-25T04:22:24.330Z,25.50
2018-07-25T04:22:58.153Z,25.50
2018-07-25T04:23:32.399Z,25.60
2018-07-25T04:24:06.385Z,25.70
2018-07-25T04:24:40.358Z,25.70
2018-07-25T04:25:14.716Z,25.70
2018-07-25T04:25:48.958Z,25.80
2018-07-25T04:26:22.835Z,25.90
2018-07-25T04:26:56.676Z,26.00
2018-07-25T04:27:30.899Z,26.00
2018-07-25T04:28:05.118Z,26.00
2018-07-25T04:28:39.008Z,26.00
2018-07-25T04:29:12.912Z,26.10
2018-07-25T04:29:46.781Z,26.20
2018-07-25T04:30:21.317Z,26.20
2018-07-25T04:30:55.196Z,26.20
2018-07-25T04:31:29.067Z,26.30
2018-07-25T04:32:02.943Z,26.30
2018-07-25T04:32:36.832Z,26.30
2018-07-25T04:33:11.014Z,26.30
2018-07-25T04:33:44.911Z,26.30
2018-07-25T04:34:18.779Z,26.40
2018-07-25T04:34:52.663Z,26.40
2018-07-25T04:35:27.060Z,26.50
2018-07-25T04:36:00.919Z,26.50
2018-07-25T04:36:34.863Z,26.50
2018-07-25T04:37:08.751Z,26.60
2018-07-25T04:37:43.559Z,26.70
2018-07-25T04:38:17.417Z,26.70
2018-07-25T04:38:51.620Z,26.80
2018-07-25T04:39:25.821Z,26.90
2018-07-25T04:40:00.005Z,26.90
2018-07-25T04:40:33.851Z,26.90
2018-07-25T04:41:07.725Z,27.00
2018-07-25T04:41:41.752Z,27.10
2018-07-25T04:42:15.602Z,27.20
2018-07-25T04:42:49.468Z,27.30
2018-07-25T04:43:23.572Z,27.30
2018-07-25T04:43:57.445Z,27.30
2018-07-25T04:44:31.691Z,27.40
2018-07-25T04:45:06.587Z,27.40
2018-07-25T04:45:40.443Z,27.40
2018-07-25T04:46:14.727Z,27.50
2018-07-25T04:46:48.709Z,27.60
2018-07-25T04:47:23.151Z,27.60
2018-07-25T04:47:57.017Z,27.60
2018-07-25T04:48:31.165Z,27.70
2018-07-25T04:49:05.082Z,27.70
2018-07-25T04:49:38.961Z,27.80
2018-07-25T04:50:12.823Z,27.80
2018-07-25T04:50:47.043Z,27.80
2018-07-25T04:51:20.893Z,27.80
2018-07-25T04:51:54.816Z,27.80
2018-07-25T04:52:29.017Z,27.80
2018-07-25T04:53:03.230Z,27.90
2018-07-25T04:53:37.424Z,27.90
2018-07-25T04:54:11.325Z,28.00
2018-07-25T04:54:45.311Z,28.00
2018-07-25T04:55:19.824Z,28.10
2018-07-25T04:55:53.661Z,28.10
2018-07-25T04:56:27.525Z,28.20
2018-07-25T04:57:01.425Z,28.20
2018-07-25T04:57:35.284Z,28.20
2018-07-25T04:58:09.213Z,28.30
2018-07-25T04:58:43.091Z,28.30
2018-07-25T04:59:16.987Z,28.40
2018-07-25T04:59:50.885Z,28.40
2018-07-25T05:00:25.437Z,28.50
2018-07-25T05:00:59.823Z,28.60
2018-07-25T05:01:34.264Z,28.60
2018-07-25T05:02:08.687Z,28.70
2018-07-25T05:02:42.563Z,28.80
2018-07-25T05:03:16.439Z,28.80
2018-07-25T05:03:50.288Z,28.80
2018-07-25T05:04:24.489Z,28.90
2018-07-25T05:04:58.388Z,28.90
2018-07-25T05:05:32.221Z,28.90
2018-07-25T05:06:06.121Z,28.90
2018-07-25T05:06:39.979Z,29.00
2018-07-25T05:07:13.928Z,29.00
2018-07-25T05:07:47.957Z,29.10
2018-07-25T05:08:21.853Z,29.20
2018-07-25T05:08:55.721Z,29.20
2018-07-25T05:09:29.606Z,29.30
2018-07-25T05:10:03.492Z,29.40
2018-07-25T05:10:37.380Z,29.50
2018-07-25T05:11:11.583Z,29.50
2018-07-25T05:11:45.440Z,29.50
2018-07-25T05:12:19.689Z,29.60
2018-07-25T05:12:53.969Z,29.70
2018-07-25T05:13:28.341Z,29.70
2018-07-25T05:14:02.252Z,29.70
2018-07-25T05:14:36.150Z,29.70
2018-07-25T05:15:10.762Z,29.80
2018-07-25T05:15:45.503Z,29.80
2018-07-25T05:16:19.369Z,29.80
2018-07-25T05:16:53.857Z,29.80
2018-07-25T05:17:27.699Z,29.80
2018-07-25T05:18:01.707Z,29.80
2018-07-25T05:18:36.055Z,29.80
2018-07-25T05:19:09.961Z,29.90
2018-07-25T05:19:43.847Z,29.90
2018-07-25T05:20:18.411Z,29.90
2018-07-25T05:20:53.185Z,30.00
2018-07-25T05:21:27.442Z,30.00
2018-07-25T05:22:01.328Z,30.10
2018-07-25T05:22:35.749Z,30.10
2018-07-25T05:23:09.662Z,30.20
2018-07-25T05:23:44.050Z,30.20
2018-07-25T05:24:17.945Z,30.20
2018-07-25T05:24:51.834Z,30.30
2018-07-25T05:25:25.757Z,30.30
2018-07-25T05:25:59.587Z,30.30
2018-07-25T05:26:33.495Z,30.30
2018-07-25T05:27:08.268Z,30.30
2018-07-25T05:27:42.486Z,30.40
2018-07-25T05:28:16.438Z,30.40
2018-07-25T05:28:50.429Z,30.40
2018-07-25T05:29:24.675Z,30.50
2018-07-25T05:29:58.578Z,30.50
2018-07-25T05:30:33.034Z,30.50
2018-07-25T05:31:07.522Z,30.50
2018-07-25T05:31:41.466Z,30.50
2018-07-25T05:32:15.689Z,30.60
2018-07-25T05:32:50.149Z,30.70
2018-07-25T05:33:24.645Z,30.70
2018-07-25T05:33:58.605Z,30.80
2018-07-25T05:34:32.829Z,30.80
2018-07-25T05:35:07.265Z,30.90
2018-07-25T05:35:42.066Z,30.90
2018-07-25T05:36:16.486Z,31.00
2018-07-25T05:36:50.386Z,31.00
2018-07-25T05:37:24.402Z,31.00
2018-07-25T05:37:58.945Z,31.10
2018-07-25T05:38:33.326Z,31.10
2018-07-25T05:39:10.282Z,31.10
2018-07-25T05:39:45.106Z,31.10
2018-07-25T05:40:18.958Z,31.10
2018-07-25T05:40:53.426Z,31.20
2018-07-25T05:41:27.282Z,31.20
2018-07-25T05:42:01.142Z,31.20
2018-07-25T05:42:35.002Z,31.20
2018-07-25T05:43:08.864Z,31.10
2018-07-25T05:43:43.105Z,31.10
2018-07-25T05:44:17.253Z,31.00
2018-07-25T05:44:51.458Z,30.90
2018-07-25T05:45:25.362Z,30.90
2018-07-25T05:45:59.927Z,30.80
2018-07-25T05:46:34.686Z,30.70
2018-07-25T05:47:09.560Z,30.70
2018-07-25T05:47:43.970Z,30.80
2018-07-25T05:48:17.871Z,30.70
2018-07-25T05:48:52.440Z,30.60
2018-07-25T05:49:26.408Z,30.50
2018-07-25T05:50:01.015Z,30.40
2018-07-25T05:50:35.798Z,30.40
2018-07-25T05:51:09.719Z,30.40
2018-07-25T05:51:44.162Z,30.40
2018-07-25T05:52:18.390Z,30.30
2018-07-25T05:52:52.833Z,30.40
2018-07-25T05:53:26.728Z,30.50
2018-07-25T05:54:01.634Z,30.50
2018-07-25T05:54:35.848Z,30.40
2018-07-25T05:55:09.752Z,30.40
2018-07-25T05:55:44.218Z,30.40
2018-07-25T05:56:18.090Z,30.40
2018-07-25T05:56:52.039Z,30.40
2018-07-25T05:57:26.053Z,30.40
2018-07-25T05:57:59.951Z,30.40
2018-07-25T05:58:34.401Z,30.30
2018-07-25T05:59:08.822Z,30.30
2018-07-25T05:59:43.030Z,30.30
2018-07-25T06:00:17.257Z,30.30
2018-07-25T06:00:51.440Z,30.10
2018-07-25T06:01:26.075Z,30.00
2018-07-25T06:02:00.264Z,29.90
2018-07-25T06:02:34.162Z,29.90
2018-07-25T06:03:08.398Z,29.90
2018-07-25T06:03:43.670Z,29.90
2018-07-25T06:04:17.534Z,29.90
2018-07-25T06:04:52.002Z,29.90
2018-07-25T06:05:25.844Z,30.00
2018-07-25T06:05:59.710Z,30.00
2018-07-25T06:06:34.502Z,30.10
2018-07-25T06:07:08.417Z,30.10
2018-07-25T06:07:42.322Z,30.10
2018-07-25T06:08:16.280Z,30.00
2018-07-25T06:08:50.516Z,29.90
2018-07-25T06:09:24.384Z,29.90
2018-07-25T06:09:58.304Z,29.90
2018-07-25T06:10:32.199Z,29.90
2018-07-25T06:11:06.706Z,29.80
2018-07-25T06:11:41.219Z,29.80
2018-07-25T06:12:15.174Z,29.80
2018-07-25T06:12:49.268Z,29.90
2018-07-25T06:13:23.148Z,29.80
2018-07-25T06:13:57.332Z,29.80
2018-07-25T06:14:31.204Z,29.70
2018-07-25T06:15:06.685Z,29.70
2018-07-25T06:15:40.553Z,29.80
2018-07-25T06:16:14.761Z,29.70
2018-07-25T06:16:48.995Z,29.80
2018-07-25T06:17:22.871Z,29.90
2018-07-25T06:17:56.719Z,29.90
2018-07-25T06:18:30.590Z,29.90
2018-07-25T06:19:04.471Z,29.70
2018-07-25T06:19:38.298Z,29.60
2018-07-25T06:20:12.157Z,29.60
2018-07-25T06:20:46.033Z,29.50
2018-07-25T06:21:19.884Z,29.40
2018-07-25T06:21:54.107Z,29.40
2018-07-25T06:22:28.302Z,29.30
2018-07-25T06:23:02.532Z,29.30
2018-07-25T06:23:36.383Z,29.20
2018-07-25T06:24:10.222Z,29.10
2018-07-25T06:24:44.135Z,29.20
2018-07-25T06:25:17.984Z,29.10
2018-07-25T06:25:52.230Z,29.00
2018-07-25T06:26:26.575Z,29.00
2018-07-25T06:27:00.543Z,28.90
2018-07-25T06:27:34.493Z,28.90
2018-07-25T06:28:08.698Z,28.90
2018-07-25T06:28:42.584Z,28.90
2018-07-25T06:29:16.802Z,28.80
2018-07-25T06:29:50.661Z,28.80
2018-07-25T06:30:24.808Z,28.70
2018-07-25T06:30:58.698Z,28.80
2018-07-25T06:31:32.592Z,28.80
2018-07-25T06:32:06.851Z,28.70
2018-07-25T06:32:40.664Z,28.60
2018-07-25T06:33:14.945Z,28.60
2018-07-25T06:33:49.156Z,28.50
2018-07-25T06:34:56.679Z,28.30
2018-07-25T06:35:30.601Z,28.20
2018-07-25T06:36:04.519Z,28.10
2018-07-25T06:36:38.432Z,27.90
2018-07-25T06:37:12.371Z,27.80
2018-07-25T06:37:46.315Z,27.70
2018-07-25T06:38:20.201Z,27.60
2018-07-25T06:38:54.081Z,27.50
2018-07-25T06:39:27.968Z,27.40
2018-07-25T06:40:02.175Z,27.30
2018-07-25T06:41:10.686Z,27.30
2018-07-25T06:41:44.900Z,27.20
2018-07-25T06:42:18.792Z,27.20
2018-07-25T06:42:52.660Z,27.20
2018-07-25T06:43:26.616Z,27.20
2018-07-25T06:44:00.652Z,27.20
2018-07-25T06:44:34.565Z,27.10
2018-07-25T06:45:08.782Z,27.10
2018-07-25T06:45:42.676Z,27.00
2018-07-25T06:46:57.069Z,27.00
2018-07-25T06:47:30.932Z,26.90
2018-07-25T06:48:05.239Z,26.90
2018-07-25T06:48:39.054Z,26.90
2018-07-25T06:49:12.927Z,26.90
2018-07-25T06:49:46.798Z,26.90
2018-07-25T06:50:20.695Z,26.90
2018-07-25T06:50:54.535Z,26.90
2018-07-25T06:51:28.383Z,26.80
2018-07-25T06:52:02.243Z,26.80
2018-07-25T06:52:36.241Z,26.90
2018-07-25T06:53:43.672Z,26.80
2018-07-25T06:54:17.527Z,26.80
2018-07-25T06:54:51.752Z,26.80
2018-07-25T06:55:25.604Z,26.80
2018-07-25T06:55:59.524Z,26.80
2018-07-25T06:56:33.419Z,26.80
2018-07-25T06:57:07.596Z,26.80
2018-07-25T06:57:41.522Z,26.80
2018-07-25T06:58:15.712Z,26.80
2018-07-25T06:58:49.578Z,26.80
2018-07-25T06:59:23.602Z,26.80
2018-07-25T06:59:57.838Z,26.70
2018-07-25T07:00:32.118Z,26.70
2018-07-25T07:01:06.021Z,26.70
2018-07-25T07:01:39.871Z,26.70
2018-07-25T07:02:14.118Z,26.70
2018-07-25T07:02:48.190Z,26.70
2018-07-25T07:03:22.409Z,26.70
2018-07-25T07:03:56.252Z,26.70
2018-07-25T07:04:30.208Z,26.70
2018-07-25T07:05:04.481Z,26.70
2018-07-25T07:05:38.747Z,26.70
2018-07-25T07:06:13.016Z,26.70
2018-07-25T07:06:47.683Z,26.70
2018-07-25T07:07:22.048Z,26.70
2018-07-25T07:07:56.029Z,26.70
2018-07-25T07:08:30.270Z,26.70
2018-07-25T07:09:05.981Z,26.70
2018-07-25T07:09:39.896Z,26.70
2018-07-25T07:10:14.087Z,26.80
2018-07-25T07:10:48.290Z,26.80
2018-07-25T07:11:22.852Z,26.80
2018-07-25T07:11:56.770Z,26.80
2018-07-25T07:12:30.684Z,26.80
2018-07-25T07:13:04.581Z,26.80
2018-07-25T07:13:38.785Z,26.80
2018-07-25T07:14:12.657Z,26.80
2018-07-25T07:14:46.555Z,26.80
2018-07-25T07:15:54.674Z,26.80
2018-07-25T07:16:28.923Z,26.80
2018-07-25T07:17:02.763Z,26.80
2018-07-25T07:17:36.653Z,26.90
2018-07-25T07:18:10.860Z,26.90
2018-07-25T07:18:44.773Z,26.90
2018-07-25T07:19:19.319Z,26.90
2018-07-25T07:19:53.210Z,26.90
2018-07-25T07:20:27.110Z,26.90
2018-07-25T07:21:00.997Z,26.90
2018-07-25T07:21:34.861Z,26.90
2018-07-25T07:22:09.072Z,26.90
2018-07-25T07:22:42.971Z,27.00
2018-07-25T07:23:16.986Z,27.00
2018-07-25T07:23:50.879Z,27.00
2018-07-25T07:24:24.735Z,27.00
2018-07-25T07:24:58.600Z,27.10
2018-07-25T07:25:32.781Z,27.10
2018-07-25T07:26:07.033Z,27.10
2018-07-25T07:26:41.021Z,27.10
2018-07-25T07:27:15.310Z,27.10